Jeffersontown, Kentucky
Current Conditions -  °F | °C
As of 4:53 AM on Sunday 25 Jan 2015 (Local Time) from KLOU Reporting Station
Clear Clear  
Wind Chill: 34°   Ceiling: Unl
Heat Index: 38°   Visibility: 10mi
Dew Point: 31°   Wind: 5mph
Humidity: 76%   Direction: 160°SSE
Pressure: 29.76"   Gusts: NA
Location:  38.19°N, 85.57°W
Report Text: KLOU 250953Z AUTO 16004KT 10SM CLR 03/M01 A2976 RMK AO2 SLP080 T00331006
Loading
Personal Weather Stations






























Interactive Weather Map New forecast layout! Learn more

10-Day Weather Forecast

Advertisements
Track Severe Weather on mobile